sensor_id;sensor_type;location;lat;lon;timestamp;temperature;humidity
48768;DHT22;34933;40.968;14.538;2023-09-12T00:02:13;19.50;99.90
48768;DHT22;34933;40.968;14.538;2023-09-12T00:04:58;19.40;99.90
48768;DHT22;34933;40.968;14.538;2023-09-12T00:07:43;19.50;99.90
48768;DHT22;34933;40.968;14.538;2023-09-12T00:10:27;19.50;99.90
48768;DHT22;34933;40.968;14.538;2023-09-12T00:13:12;19.40;99.90
48768;DHT22;34933;40.968;14.538;2023-09-12T00:15:57;19.50;99.90
48768;DHT22;34933;40.968;14.538;2023-09-12T00:18:41;19.50;99.90
48768;DHT22;34933;40.968;14.538;2023-09-12T00:21:26;19.50;99.90
48768;DHT22;34933;40.968;14.538;2023-09-12T00:24:11;19.50;99.90
48768;DHT22;34933;40.968;14.538;2023-09-12T00:26:56;19.50;99.90
48768;DHT22;34933;40.968;14.538;2023-09-12T00:29:40;19.50;99.90
48768;DHT22;34933;40.968;14.538;2023-09-12T00:32:25;19.50;99.90
48768;DHT22;34933;40.968;14.538;2023-09-12T00:35:10;19.50;99.90
48768;DHT22;34933;40.968;14.538;2023-09-12T00:37:54;19.40;99.90
48768;DHT22;34933;40.968;14.538;2023-09-12T00:40:39;19.40;99.90
48768;DHT22;34933;40.968;14.538;2023-09-12T00:43:23;19.40;99.90
48768;DHT22;34933;40.968;14.538;2023-09-12T00:46:08;19.30;99.90
48768;DHT22;34933;40.968;14.538;2023-09-12T00:48:53;19.30;99.90
48768;DHT22;34933;40.968;14.538;2023-09-12T00:51:40;19.30;99.90
48768;DHT22;34933;40.968;14.538;2023-09-12T00:54:26;19.20;99.90
48768;DHT22;34933;40.968;14.538;2023-09-12T00:57:11;19.20;99.90
48768;DHT22;34933;40.968;14.538;2023-09-12T00:59:56;19.20;99.90
48768;DHT22;34933;40.968;14.538;2023-09-12T01:02:44;19.20;99.90
48768;DHT22;34933;40.968;14.538;2023-09-12T01:05:29;19.20;99.90
48768;DHT22;34933;40.968;14.538;2023-09-12T01:08:14;19.10;99.90
48768;DHT22;34933;40.968;14.538;2023-09-12T01:10:59;19.10;99.90
48768;DHT22;34933;40.968;14.538;2023-09-12T01:13:43;19.20;99.90
48768;DHT22;34933;40.968;14.538;2023-09-12T01:16:28;19.10;99.90
48768;DHT22;34933;40.968;14.538;2023-09-12T01:19:14;19.20;99.90
48768;DHT22;34933;40.968;14.538;2023-09-12T01:22:20;19.20;99.90
48768;DHT22;34933;40.968;14.538;2023-09-12T01:28:16;19.20;99.90
48768;DHT22;34933;40.968;14.538;2023-09-12T01:31:02;19.20;99.90
48768;DHT22;34933;40.968;14.538;2023-09-12T01:33:47;19.20;99.90
48768;DHT22;34933;40.968;14.538;2023-09-12T01:36:32;19.20;99.90
48768;DHT22;34933;40.968;14.538;2023-09-12T01:39:17;19.20;99.90
48768;DHT22;34933;40.968;14.538;2023-09-12T01:42:02;19.10;99.90
48768;DHT22;34933;40.968;14.538;2023-09-12T01:44:50;19.10;99.90
48768;DHT22;34933;40.968;14.538;2023-09-12T01:47:35;19.00;99.90
48768;DHT22;34933;40.968;14.538;2023-09-12T01:50:22;18.90;99.90
48768;DHT22;34933;40.968;14.538;2023-09-12T01:53:07;18.90;99.90
48768;DHT22;34933;40.968;14.538;2023-09-12T01:55:52;18.90;99.90
48768;DHT22;34933;40.968;14.538;2023-09-12T01:58:37;18.80;99.90
48768;DHT22;34933;40.968;14.538;2023-09-12T02:01:22;18.70;99.90
48768;DHT22;34933;40.968;14.538;2023-09-12T02:04:06;18.70;99.90
48768;DHT22;34933;40.968;14.538;2023-09-12T02:06:53;18.60;99.90
48768;DHT22;34933;40.968;14.538;2023-09-12T02:09:38;18.60;99.90
48768;DHT22;34933;40.968;14.538;2023-09-12T02:12:22;18.60;99.90
48768;DHT22;34933;40.968;14.538;2023-09-12T02:15:08;18.60;99.90
48768;DHT22;34933;40.968;14.538;2023-09-12T02:17:52;18.50;99.90
48768;DHT22;34933;40.968;14.538;2023-09-12T02:20:41;18.50;99.90
48768;DHT22;34933;40.968;14.538;2023-09-12T02:23:26;18.50;99.90
48768;DHT22;34933;40.968;14.538;2023-09-12T02:26:10;18.40;99.90
48768;DHT22;34933;40.968;14.538;2023-09-12T02:28:55;18.40;99.90
48768;DHT22;34933;40.968;14.538;2023-09-12T02:31:39;18.40;99.90
48768;DHT22;34933;40.968;14.538;2023-09-12T02:34:24;18.40;99.90
48768;DHT22;34933;40.968;14.538;2023-09-12T02:37:09;18.40;99.90
48768;DHT22;34933;40.968;14.538;2023-09-12T02:39:54;18.40;99.90
48768;DHT22;34933;40.968;14.538;2023-09-12T02:42:38;18.40;99.90
48768;DHT22;34933;40.968;14.538;2023-09-12T02:45:23;18.30;99.90
48768;DHT22;34933;40.968;14.538;2023-09-12T02:48:07;18.30;99.90
48768;DHT22;34933;40.968;14.538;2023-09-12T02:50:52;18.20;99.90
48768;DHT22;34933;40.968;14.538;2023-09-12T02:53:37;18.10;99.90
48768;DHT22;34933;40.968;14.538;2023-09-12T02:56:22;18.00;99.90
48768;DHT22;34933;40.968;14.538;2023-09-12T02:59:06;17.90;99.90
48768;DHT22;34933;40.968;14.538;2023-09-12T03:01:51;17.90;99.90
48768;DHT22;34933;40.968;14.538;2023-09-12T03:04:36;17.90;99.90
48768;DHT22;34933;40.968;14.538;2023-09-12T03:07:20;17.90;99.90
48768;DHT22;34933;40.968;14.538;2023-09-12T03:10:05;17.90;99.90
48768;DHT22;34933;40.968;14.538;2023-09-12T03:12:50;17.80;99.90
48768;DHT22;34933;40.968;14.538;2023-09-12T03:15:38;17.80;99.90
48768;DHT22;34933;40.968;14.538;2023-09-12T03:18:22;17.80;99.90
48768;DHT22;34933;40.968;14.538;2023-09-12T03:21:08;17.80;99.90
48768;DHT22;34933;40.968;14.538;2023-09-12T03:23:52;17.80;99.90
48768;DHT22;34933;40.968;14.538;2023-09-12T03:26:38;17.80;99.90
48768;DHT22;34933;40.968;14.538;2023-09-12T03:29:22;17.80;99.90
48768;DHT22;34933;40.968;14.538;2023-09-12T03:32:07;17.80;99.90
48768;DHT22;34933;40.968;14.538;2023-09-12T03:34:52;17.70;99.90
48768;DHT22;34933;40.968;14.538;2023-09-12T03:37:37;17.70;99.90
48768;DHT22;34933;40.968;14.538;2023-09-12T03:40:24;17.70;99.90
48768;DHT22;34933;40.968;14.538;2023-09-12T03:43:09;17.60;99.90
48768;DHT22;34933;40.968;14.538;2023-09-12T03:45:54;17.70;99.90
48768;DHT22;34933;40.968;14.538;2023-09-12T03:48:39;17.60;99.90
48768;DHT22;34933;40.968;14.538;2023-09-12T03:51:23;17.60;99.90
48768;DHT22;34933;40.968;14.538;2023-09-12T03:54:08;17.60;99.90
48768;DHT22;34933;40.968;14.538;2023-09-12T03:56:53;17.60;99.90
48768;DHT22;34933;40.968;14.538;2023-09-12T03:59:37;17.60;99.90
48768;DHT22;34933;40.968;14.538;2023-09-12T04:02:22;17.70;99.90
48768;DHT22;34933;40.968;14.538;2023-09-12T04:05:07;17.70;99.90
48768;DHT22;34933;40.968;14.538;2023-09-12T04:07:52;17.60;99.90
48768;DHT22;34933;40.968;14.538;2023-09-12T04:10:36;17.60;99.90
48768;DHT22;34933;40.968;14.538;2023-09-12T04:13:22;17.70;99.90
48768;DHT22;34933;40.968;14.538;2023-09-12T04:16:07;17.70;99.90
48768;DHT22;34933;40.968;14.538;2023-09-12T04:18:51;17.60;99.90
48768;DHT22;34933;40.968;14.538;2023-09-12T04:21:36;17.60;99.90
48768;DHT22;34933;40.968;14.538;2023-09-12T04:24:21;17.60;99.90
48768;DHT22;34933;40.968;14.538;2023-09-12T04:27:05;17.60;99.90
48768;DHT22;34933;40.968;14.538;2023-09-12T04:29:50;17.50;99.90
48768;DHT22;34933;40.968;14.538;2023-09-12T04:32:34;17.50;99.90
48768;DHT22;34933;40.968;14.538;2023-09-12T04:35:19;17.50;99.90
48768;DHT22;34933;40.968;14.538;2023-09-12T04:38:05;17.50;99.90
48768;DHT22;34933;40.968;14.538;2023-09-12T04:40:56;17.40;99.90
48768;DHT22;34933;40.968;14.538;2023-09-12T04:43:43;17.40;99.90
48768;DHT22;34933;40.968;14.538;2023-09-12T04:46:31;17.40;99.90
48768;DHT22;34933;40.968;14.538;2023-09-12T04:49:15;17.30;99.90
48768;DHT22;34933;40.968;14.538;2023-09-12T04:52:00;17.30;99.90
48768;DHT22;34933;40.968;14.538;2023-09-12T04:54:45;17.30;99.90
48768;DHT22;34933;40.968;14.538;2023-09-12T04:57:30;17.30;99.90
48768;DHT22;34933;40.968;14.538;2023-09-12T05:00:15;17.30;99.90
48768;DHT22;34933;40.968;14.538;2023-09-12T05:03:01;17.40;99.90
48768;DHT22;34933;40.968;14.538;2023-09-12T05:05:47;17.40;99.90
48768;DHT22;34933;40.968;14.538;2023-09-12T05:08:32;17.40;99.90
48768;DHT22;34933;40.968;14.538;2023-09-12T05:11:17;17.40;99.90
48768;DHT22;34933;40.968;14.538;2023-09-12T05:14:01;17.40;99.90
48768;DHT22;34933;40.968;14.538;2023-09-12T05:16:48;17.40;99.90
48768;DHT22;34933;40.968;14.538;2023-09-12T05:19:32;17.40;99.90
48768;DHT22;34933;40.968;14.538;2023-09-12T05:22:18;17.50;99.90
48768;DHT22;34933;40.968;14.538;2023-09-12T05:25:02;17.70;99.90
48768;DHT22;34933;40.968;14.538;2023-09-12T05:27:47;17.80;99.90
48768;DHT22;34933;40.968;14.538;2023-09-12T05:30:32;17.90;99.90
48768;DHT22;34933;40.968;14.538;2023-09-12T05:33:17;18.10;99.90
48768;DHT22;34933;40.968;14.538;2023-09-12T05:36:02;18.30;99.90
48768;DHT22;34933;40.968;14.538;2023-09-12T05:38:47;18.40;99.90
48768;DHT22;34933;40.968;14.538;2023-09-12T05:41:32;18.60;99.90
48768;DHT22;34933;40.968;14.538;2023-09-12T05:44:16;18.70;99.90
48768;DHT22;34933;40.968;14.538;2023-09-12T05:47:03;18.90;99.90
48768;DHT22;34933;40.968;14.538;2023-09-12T05:49:47;19.00;99.90
48768;DHT22;34933;40.968;14.538;2023-09-12T05:52:33;19.10;99.90
48768;DHT22;34933;40.968;14.538;2023-09-12T05:55:21;19.30;99.90
48768;DHT22;34933;40.968;14.538;2023-09-12T05:58:06;19.50;99.90
48768;DHT22;34933;40.968;14.538;2023-09-12T06:00:52;19.70;99.90
48768;DHT22;34933;40.968;14.538;2023-09-12T06:03:36;19.90;99.90
48768;DHT22;34933;40.968;14.538;2023-09-12T06:06:21;20.10;99.90
48768;DHT22;34933;40.968;14.538;2023-09-12T06:09:05;20.30;99.90
48768;DHT22;34933;40.968;14.538;2023-09-12T06:11:50;20.60;99.90
48768;DHT22;34933;40.968;14.538;2023-09-12T06:14:35;20.80;99.90
48768;DHT22;34933;40.968;14.538;2023-09-12T06:17:19;21.00;99.90
48768;DHT22;34933;40.968;14.538;2023-09-12T06:20:05;21.20;99.90
48768;DHT22;34933;40.968;14.538;2023-09-12T06:22:52;21.40;99.90
48768;DHT22;34933;40.968;14.538;2023-09-12T06:25:37;21.60;99.90
48768;DHT22;34933;40.968;14.538;2023-09-12T06:28:29;21.80;99.90
48768;DHT22;34933;40.968;14.538;2023-09-12T06:31:15;21.90;99.90
48768;DHT22;34933;40.968;14.538;2023-09-12T06:33:59;22.10;99.90
48768;DHT22;34933;40.968;14.538;2023-09-12T06:36:44;22.30;99.90
48768;DHT22;34933;40.968;14.538;2023-09-12T06:39:29;22.50;99.90
48768;DHT22;34933;40.968;14.538;2023-09-12T06:42:13;22.60;99.90
48768;DHT22;34933;40.968;14.538;2023-09-12T06:44:58;22.80;99.90
48768;DHT22;34933;40.968;14.538;2023-09-12T06:47:42;23.00;99.90
48768;DHT22;34933;40.968;14.538;2023-09-12T06:50:27;23.20;99.90
48768;DHT22;34933;40.968;14.538;2023-09-12T06:53:11;23.30;99.90
48768;DHT22;34933;40.968;14.538;2023-09-12T06:55:56;23.50;99.90
48768;DHT22;34933;40.968;14.538;2023-09-12T06:58:41;23.70;99.90
48768;DHT22;34933;40.968;14.538;2023-09-12T07:01:26;23.80;99.90
48768;DHT22;34933;40.968;14.538;2023-09-12T07:04:10;24.00;99.90
48768;DHT22;34933;40.968;14.538;2023-09-12T07:06:55;24.20;99.90
48768;DHT22;34933;40.968;14.538;2023-09-12T07:09:40;24.30;99.90
48768;DHT22;34933;40.968;14.538;2023-09-12T07:12:26;24.50;99.90
48768;DHT22;34933;40.968;14.538;2023-09-12T07:15:12;24.60;99.90
48768;DHT22;34933;40.968;14.538;2023-09-12T07:17:57;24.70;99.90
48768;DHT22;34933;40.968;14.538;2023-09-12T07:20:43;24.90;99.90
48768;DHT22;34933;40.968;14.538;2023-09-12T07:23:28;25.00;99.90
48768;DHT22;34933;40.968;14.538;2023-09-12T07:26:14;25.10;99.90
48768;DHT22;34933;40.968;14.538;2023-09-12T07:28:58;25.20;99.30
48768;DHT22;34933;40.968;14.538;2023-09-12T07:31:46;25.40;99.90
48768;DHT22;34933;40.968;14.538;2023-09-12T07:34:31;25.50;99.90
48768;DHT22;34933;40.968;14.538;2023-09-12T07:37:16;25.60;99.90
48768;DHT22;34933;40.968;14.538;2023-09-12T07:40:01;25.70;99.50
48768;DHT22;34933;40.968;14.538;2023-09-12T07:42:51;25.80;99.90
48768;DHT22;34933;40.968;14.538;2023-09-12T07:45:35;25.90;99.90
48768;DHT22;34933;40.968;14.538;2023-09-12T07:48:21;25.90;99.90
48768;DHT22;34933;40.968;14.538;2023-09-12T07:51:15;26.00;99.90
48768;DHT22;34933;40.968;14.538;2023-09-12T07:54:02;26.00;99.90
48768;DHT22;34933;40.968;14.538;2023-09-12T07:56:46;26.00;99.90
48768;DHT22;34933;40.968;14.538;2023-09-12T07:59:31;26.10;99.90
48768;DHT22;34933;40.968;14.538;2023-09-12T08:02:16;26.20;99.90
48768;DHT22;34933;40.968;14.538;2023-09-12T08:05:00;26.30;99.90
48768;DHT22;34933;40.968;14.538;2023-09-12T08:07:45;26.40;99.90
48768;DHT22;34933;40.968;14.538;2023-09-12T08:10:29;26.50;99.90
48768;DHT22;34933;40.968;14.538;2023-09-12T08:13:14;26.50;99.90
48768;DHT22;34933;40.968;14.538;2023-09-12T08:15:59;26.60;99.90
48768;DHT22;34933;40.968;14.538;2023-09-12T08:18:43;26.60;99.90
48768;DHT22;34933;40.968;14.538;2023-09-12T08:21:28;26.60;99.90
48768;DHT22;34933;40.968;14.538;2023-09-12T08:24:13;26.70;99.90
48768;DHT22;34933;40.968;14.538;2023-09-12T08:26:58;26.80;99.90
48768;DHT22;34933;40.968;14.538;2023-09-12T08:29:42;26.90;99.90
48768;DHT22;34933;40.968;14.538;2023-09-12T08:32:28;27.00;99.90
48768;DHT22;34933;40.968;14.538;2023-09-12T08:35:14;27.10;99.90
48768;DHT22;34933;40.968;14.538;2023-09-12T08:37:58;27.20;99.90
48768;DHT22;34933;40.968;14.538;2023-09-12T08:40:52;27.30;99.80
48768;DHT22;34933;40.968;14.538;2023-09-12T08:43:37;27.40;99.90
48768;DHT22;34933;40.968;14.538;2023-09-12T08:46:22;27.40;99.90
48768;DHT22;34933;40.968;14.538;2023-09-12T08:49:07;27.50;99.90
48768;DHT22;34933;40.968;14.538;2023-09-12T08:51:53;27.60;99.10
48768;DHT22;34933;40.968;14.538;2023-09-12T08:54:38;27.70;98.50
48768;DHT22;34933;40.968;14.538;2023-09-12T08:57:23;27.90;98.10
48768;DHT22;34933;40.968;14.538;2023-09-12T09:00:09;28.00;97.70
48768;DHT22;34933;40.968;14.538;2023-09-12T09:02:57;28.20;97.10
48768;DHT22;34933;40.968;14.538;2023-09-12T09:05:43;28.20;97.80
48768;DHT22;34933;40.968;14.538;2023-09-12T09:08:28;28.20;97.40
48768;DHT22;34933;40.968;14.538;2023-09-12T09:11:13;28.10;97.50
48768;DHT22;34933;40.968;14.538;2023-09-12T09:13:58;28.20;96.20
48768;DHT22;34933;40.968;14.538;2023-09-12T09:16:43;28.30;96.60
48768;DHT22;34933;40.968;14.538;2023-09-12T09:19:41;28.30;96.90
48768;DHT22;34933;40.968;14.538;2023-09-12T09:22:26;28.40;96.70
48768;DHT22;34933;40.968;14.538;2023-09-12T09:25:11;28.60;96.40
48768;DHT22;34933;40.968;14.538;2023-09-12T09:27:57;28.90;96.40
48768;DHT22;34933;40.968;14.538;2023-09-12T09:30:43;29.10;95.90
48768;DHT22;34933;40.968;14.538;2023-09-12T09:33:35;29.10;95.60
48768;DHT22;34933;40.968;14.538;2023-09-12T09:36:20;29.00;95.10
48768;DHT22;34933;40.968;14.538;2023-09-12T09:39:05;28.90;94.30
48768;DHT22;34933;40.968;14.538;2023-09-12T09:41:51;29.10;94.40
48768;DHT22;34933;40.968;14.538;2023-09-12T09:44:36;29.10;95.00
48768;DHT22;34933;40.968;14.538;2023-09-12T09:47:21;29.10;95.60
48768;DHT22;34933;40.968;14.538;2023-09-12T09:50:05;29.10;94.70
48768;DHT22;34933;40.968;14.538;2023-09-12T09:52:54;29.30;94.90
48768;DHT22;34933;40.968;14.538;2023-09-12T09:55:40;29.50;94.70
48768;DHT22;34933;40.968;14.538;2023-09-12T09:58:26;29.80;94.40
48768;DHT22;34933;40.968;14.538;2023-09-12T10:01:12;29.90;93.50
48768;DHT22;34933;40.968;14.538;2023-09-12T10:04:01;29.90;92.90
48768;DHT22;34933;40.968;14.538;2023-09-12T10:06:46;29.80;91.90
48768;DHT22;34933;40.968;14.538;2023-09-12T10:09:32;29.80;92.00
48768;DHT22;34933;40.968;14.538;2023-09-12T10:12:18;29.80;90.90
48768;DHT22;34933;40.968;14.538;2023-09-12T10:15:03;29.90;91.30
48768;DHT22;34933;40.968;14.538;2023-09-12T10:17:57;30.00;90.50
48768;DHT22;34933;40.968;14.538;2023-09-12T10:20:48;30.20;90.80
48768;DHT22;34933;40.968;14.538;2023-09-12T10:23:41;30.20;90.30
48768;DHT22;34933;40.968;14.538;2023-09-12T10:26:28;30.30;90.60
48768;DHT22;34933;40.968;14.538;2023-09-12T10:29:14;30.50;90.70
48768;DHT22;34933;40.968;14.538;2023-09-12T10:32:01;30.60;89.70
48768;DHT22;34933;40.968;14.538;2023-09-12T10:34:46;30.80;90.10
48768;DHT22;34933;40.968;14.538;2023-09-12T10:37:35;31.00;91.00
48768;DHT22;34933;40.968;14.538;2023-09-12T10:40:20;31.10;91.20
48768;DHT22;34933;40.968;14.538;2023-09-12T10:43:05;31.20;92.70
48768;DHT22;34933;40.968;14.538;2023-09-12T10:45:51;31.30;92.30
48768;DHT22;34933;40.968;14.538;2023-09-12T10:48:37;31.10;91.80
48768;DHT22;34933;40.968;14.538;2023-09-12T10:51:24;31.30;91.80
48768;DHT22;34933;40.968;14.538;2023-09-12T10:54:09;31.50;91.70
48768;DHT22;34933;40.968;14.538;2023-09-12T10:57:08;31.60;92.70
48768;DHT22;34933;40.968;14.538;2023-09-12T11:02:44;31.90;91.80
48768;DHT22;34933;40.968;14.538;2023-09-12T11:08:13;31.70;91.90
48768;DHT22;34933;40.968;14.538;2023-09-12T11:11:17;31.50;92.00
48768;DHT22;34933;40.968;14.538;2023-09-12T11:14:05;31.50;91.80
48768;DHT22;34933;40.968;14.538;2023-09-12T11:20:02;31.60;92.00
48768;DHT22;34933;40.968;14.538;2023-09-12T11:23:09;31.70;91.70
48768;DHT22;34933;40.968;14.538;2023-09-12T11:26:06;32.00;90.70
48768;DHT22;34933;40.968;14.538;2023-09-12T11:28:50;32.10;91.30
48768;DHT22;34933;40.968;14.538;2023-09-12T11:31:36;32.10;91.20
48768;DHT22;34933;40.968;14.538;2023-09-12T11:34:26;31.90;91.20
48768;DHT22;34933;40.968;14.538;2023-09-12T11:37:25;32.00;91.40
48768;DHT22;34933;40.968;14.538;2023-09-12T11:42:58;31.80;91.10
48768;DHT22;34933;40.968;14.538;2023-09-12T11:45:44;31.80;91.60
48768;DHT22;34933;40.968;14.538;2023-09-12T11:48:29;32.00;91.40
48768;DHT22;34933;40.968;14.538;2023-09-12T11:51:14;32.40;91.40
48768;DHT22;34933;40.968;14.538;2023-09-12T11:53:59;32.60;92.00
48768;DHT22;34933;40.968;14.538;2023-09-12T11:56:49;32.70;92.00
48768;DHT22;34933;40.968;14.538;2023-09-12T11:59:39;32.90;91.80
48768;DHT22;34933;40.968;14.538;2023-09-12T12:02:25;33.20;91.80
48768;DHT22;34933;40.968;14.538;2023-09-12T12:05:09;34.10;91.40
48768;DHT22;34933;40.968;14.538;2023-09-12T12:07:54;35.00;91.30
48768;DHT22;34933;40.968;14.538;2023-09-12T12:10:39;35.30;90.40
48768;DHT22;34933;40.968;14.538;2023-09-12T12:13:24;36.10;90.10
48768;DHT22;34933;40.968;14.538;2023-09-12T12:16:18;36.30;89.30
48768;DHT22;34933;40.968;14.538;2023-09-12T12:19:02;36.70;89.30
48768;DHT22;34933;40.968;14.538;2023-09-12T12:21:47;36.70;87.60
48768;DHT22;34933;40.968;14.538;2023-09-12T12:24:44;36.70;87.70
48768;DHT22;34933;40.968;14.538;2023-09-12T12:27:29;37.00;86.80
48768;DHT22;34933;40.968;14.538;2023-09-12T12:30:14;37.60;87.30
48768;DHT22;34933;40.968;14.538;2023-09-12T12:33:08;37.20;87.40
48768;DHT22;34933;40.968;14.538;2023-09-12T12:36:19;36.90;88.40
48768;DHT22;34933;40.968;14.538;2023-09-12T12:39:04;37.10;87.00
48768;DHT22;34933;40.968;14.538;2023-09-12T12:41:52;37.40;87.80
48768;DHT22;34933;40.968;14.538;2023-09-12T12:44:37;37.80;87.40
48768;DHT22;34933;40.968;14.538;2023-09-12T12:47:25;37.80;86.80
48768;DHT22;34933;40.968;14.538;2023-09-12T12:50:16;37.20;86.80
48768;DHT22;34933;40.968;14.538;2023-09-12T12:53:03;37.50;86.30
48768;DHT22;34933;40.968;14.538;2023-09-12T12:55:48;38.00;86.20
48768;DHT22;34933;40.968;14.538;2023-09-12T12:58:33;37.30;87.40
48768;DHT22;34933;40.968;14.538;2023-09-12T13:01:19;37.40;88.20
48768;DHT22;34933;40.968;14.538;2023-09-12T13:04:10;37.50;87.20
48768;DHT22;34933;40.968;14.538;2023-09-12T13:06:54;37.40;87.60
48768;DHT22;34933;40.968;14.538;2023-09-12T13:09:39;37.80;87.30
48768;DHT22;34933;40.968;14.538;2023-09-12T13:12:23;38.20;85.20
48768;DHT22;34933;40.968;14.538;2023-09-12T13:15:09;38.20;85.80
48768;DHT22;34933;40.968;14.538;2023-09-12T13:17:54;38.20;86.10
48768;DHT22;34933;40.968;14.538;2023-09-12T13:20:38;39.30;84.80
48768;DHT22;34933;40.968;14.538;2023-09-12T13:23:23;38.70;84.80
48768;DHT22;34933;40.968;14.538;2023-09-12T13:26:10;38.60;85.40
48768;DHT22;34933;40.968;14.538;2023-09-12T13:28:54;38.10;84.40
48768;DHT22;34933;40.968;14.538;2023-09-12T13:31:39;38.30;85.00
48768;DHT22;34933;40.968;14.538;2023-09-12T13:34:23;38.50;85.40
48768;DHT22;34933;40.968;14.538;2023-09-12T13:37:08;38.30;85.60
48768;DHT22;34933;40.968;14.538;2023-09-12T13:39:54;38.80;84.80
48768;DHT22;34933;40.968;14.538;2023-09-12T13:42:38;39.00;84.80
48768;DHT22;34933;40.968;14.538;2023-09-12T13:45:23;38.50;84.40
48768;DHT22;34933;40.968;14.538;2023-09-12T13:48:07;38.50;84.90
48768;DHT22;34933;40.968;14.538;2023-09-12T13:50:52;38.00;85.10
48768;DHT22;34933;40.968;14.538;2023-09-12T13:53:37;38.50;85.80
48768;DHT22;34933;40.968;14.538;2023-09-12T13:56:22;38.90;85.90
48768;DHT22;34933;40.968;14.538;2023-09-12T13:59:06;39.00;85.30
48768;DHT22;34933;40.968;14.538;2023-09-12T14:01:51;39.00;84.10
48768;DHT22;34933;40.968;14.538;2023-09-12T14:04:35;39.20;84.60
48768;DHT22;34933;40.968;14.538;2023-09-12T14:07:20;38.90;84.90
48768;DHT22;34933;40.968;14.538;2023-09-12T14:10:06;39.40;84.30
48768;DHT22;34933;40.968;14.538;2023-09-12T14:12:51;39.80;84.20
48768;DHT22;34933;40.968;14.538;2023-09-12T14:15:36;39.70;83.20
48768;DHT22;34933;40.968;14.538;2023-09-12T14:18:21;39.60;83.10
48768;DHT22;34933;40.968;14.538;2023-09-12T14:21:05;39.80;82.50
48768;DHT22;34933;40.968;14.538;2023-09-12T14:23:50;39.50;83.40
48768;DHT22;34933;40.968;14.538;2023-09-12T14:26:35;39.90;82.90
48768;DHT22;34933;40.968;14.538;2023-09-12T14:29:19;39.70;83.80
48768;DHT22;34933;40.968;14.538;2023-09-12T14:32:04;38.50;85.40
48768;DHT22;34933;40.968;14.538;2023-09-12T14:34:48;38.80;85.20
48768;DHT22;34933;40.968;14.538;2023-09-12T14:37:33;38.30;86.30
48768;DHT22;34933;40.968;14.538;2023-09-12T14:40:18;38.20;86.60
48768;DHT22;34933;40.968;14.538;2023-09-12T14:43:02;38.40;84.50
48768;DHT22;34933;40.968;14.538;2023-09-12T14:45:47;38.10;86.70
48768;DHT22;34933;40.968;14.538;2023-09-12T14:48:32;37.90;87.10
48768;DHT22;34933;40.968;14.538;2023-09-12T14:51:18;38.30;85.60
48768;DHT22;34933;40.968;14.538;2023-09-12T14:54:03;38.40;85.70
48768;DHT22;34933;40.968;14.538;2023-09-12T14:56:48;37.90;86.20
48768;DHT22;34933;40.968;14.538;2023-09-12T14:59:32;38.00;86.10
48768;DHT22;34933;40.968;14.538;2023-09-12T15:02:17;37.80;85.80
48768;DHT22;34933;40.968;14.538;2023-09-12T15:05:02;37.60;86.60
48768;DHT22;34933;40.968;14.538;2023-09-12T15:07:50;37.80;87.50
48768;DHT22;34933;40.968;14.538;2023-09-12T15:10:34;37.60;87.90
48768;DHT22;34933;40.968;14.538;2023-09-12T15:13:19;37.30;88.00
48768;DHT22;34933;40.968;14.538;2023-09-12T15:16:04;36.80;89.10
48768;DHT22;34933;40.968;14.538;2023-09-12T15:18:50;36.80;87.20
48768;DHT22;34933;40.968;14.538;2023-09-12T15:21:35;36.70;88.50
48768;DHT22;34933;40.968;14.538;2023-09-12T15:24:20;36.70;89.80
48768;DHT22;34933;40.968;14.538;2023-09-12T15:27:05;37.10;89.30
48768;DHT22;34933;40.968;14.538;2023-09-12T15:29:50;37.50;88.20
48768;DHT22;34933;40.968;14.538;2023-09-12T15:32:34;37.40;87.20
48768;DHT22;34933;40.968;14.538;2023-09-12T15:35:19;36.20;89.10
48768;DHT22;34933;40.968;14.538;2023-09-12T15:38:05;35.50;90.00
48768;DHT22;34933;40.968;14.538;2023-09-12T15:40:49;35.70;89.30
48768;DHT22;34933;40.968;14.538;2023-09-12T15:43:34;36.00;90.00
48768;DHT22;34933;40.968;14.538;2023-09-12T15:46:19;36.20;89.50
48768;DHT22;34933;40.968;14.538;2023-09-12T15:49:04;35.70;89.60
48768;DHT22;34933;40.968;14.538;2023-09-12T15:51:48;35.70;89.30
48768;DHT22;34933;40.968;14.538;2023-09-12T15:54:33;35.70;89.30
48768;DHT22;34933;40.968;14.538;2023-09-12T15:57:18;35.20;90.20
48768;DHT22;34933;40.968;14.538;2023-09-12T16:00:07;35.00;90.00
48768;DHT22;34933;40.968;14.538;2023-09-12T16:02:57;34.50;90.70
48768;DHT22;34933;40.968;14.538;2023-09-12T16:05:42;34.30;91.40
48768;DHT22;34933;40.968;14.538;2023-09-12T16:08:26;34.40;91.30
48768;DHT22;34933;40.968;14.538;2023-09-12T16:11:11;34.10;91.30
48768;DHT22;34933;40.968;14.538;2023-09-12T16:13:56;34.00;90.60
48768;DHT22;34933;40.968;14.538;2023-09-12T16:16:42;33.60;90.90
48768;DHT22;34933;40.968;14.538;2023-09-12T16:19:26;32.60;91.40
48768;DHT22;34933;40.968;14.538;2023-09-12T16:22:11;31.90;92.50
48768;DHT22;34933;40.968;14.538;2023-09-12T16:24:56;30.80;92.90
48768;DHT22;34933;40.968;14.538;2023-09-12T16:27:41;30.20;93.10
48768;DHT22;34933;40.968;14.538;2023-09-12T16:30:25;29.90;94.10
48768;DHT22;34933;40.968;14.538;2023-09-12T16:33:10;29.60;93.50
48768;DHT22;34933;40.968;14.538;2023-09-12T16:35:55;29.30;92.80
48768;DHT22;34933;40.968;14.538;2023-09-12T16:38:39;29.00;92.60
48768;DHT22;34933;40.968;14.538;2023-09-12T16:41:24;29.00;92.70
48768;DHT22;34933;40.968;14.538;2023-09-12T16:44:08;28.90;93.80
48768;DHT22;34933;40.968;14.538;2023-09-12T16:46:53;28.90;94.30
48768;DHT22;34933;40.968;14.538;2023-09-12T16:49:37;29.10;94.90
48768;DHT22;34933;40.968;14.538;2023-09-12T16:52:23;28.80;95.80
48768;DHT22;34933;40.968;14.538;2023-09-12T16:55:08;28.50;96.40
48768;DHT22;34933;40.968;14.538;2023-09-12T16:57:54;28.30;96.90
48768;DHT22;34933;40.968;14.538;2023-09-12T17:00:39;28.00;97.50
48768;DHT22;34933;40.968;14.538;2023-09-12T17:03:24;27.80;98.00
48768;DHT22;34933;40.968;14.538;2023-09-12T17:06:09;27.60;98.50
48768;DHT22;34933;40.968;14.538;2023-09-12T17:08:53;27.40;98.70
48768;DHT22;34933;40.968;14.538;2023-09-12T17:11:38;27.30;99.00
48768;DHT22;34933;40.968;14.538;2023-09-12T17:14:22;27.20;99.10
48768;DHT22;34933;40.968;14.538;2023-09-12T17:17:07;27.00;99.50
48768;DHT22;34933;40.968;14.538;2023-09-12T17:19:52;26.80;99.90
48768;DHT22;34933;40.968;14.538;2023-09-12T17:22:36;26.50;99.90
48768;DHT22;34933;40.968;14.538;2023-09-12T17:25:21;26.30;99.90